Time;durP1;ratioP1;P1;durP2;ratioP2;P2;SDS_P1;SDS_P2;PMS_P1;PMS_P2;Temp;Humidity;BMP_temperature;BMP_pressure;BME280_temperature;BME280_humidity;BME280_pressure;Samples;Min_cycle;Max_cycle;Signal;HPM_P1;HPM_P2
2022/01/06 00:00:05;;;;;;;13.82;1.80;;;;;;;2.96;76.15;101670.28;5046830;28;20060;-65
2022/01/06 00:02:30;;;;;;;22.33;3.55;;;;;;;2.91;76.17;101666.75;5049665;28;20032;-64
2022/01/06 00:04:56;;;;;;;24.25;2.72;;;;;;;2.87;76.07;101664.97;5048821;28;20016;-64
2022/01/06 00:07:21;;;;;;;17.20;2.70;;;;;;;2.83;76.16;101668.41;5049685;28;20021;-65
2022/01/06 00:09:48;;;;;;;16.50;2.00;;;;;;;2.83;76.26;101673.59;5029374;28;20025;-64
2022/01/06 00:12:16;;;;;;;17.77;2.60;;;;;;;2.92;75.70;101671.09;5049781;28;20476;-63
2022/01/06 00:15:05;;;;;;;15.25;2.42;;;;;;;3.13;74.29;101685.22;5049792;28;20043;-64
2022/01/06 00:17:46;;;;;;;24.70;2.73;;;;;;;3.39;72.70;101682.00;5048185;28;20021;-65
2022/01/06 00:23:19;;;;;;;11.02;2.78;;;;;;;3.70;70.86;101678.81;5047423;28;20086;-64
2022/01/06 00:25:45;;;;;;;21.98;2.78;;;;;;;3.71;70.43;101673.59;5060416;28;20030;-65
2022/01/06 00:28:10;;;;;;;15.93;1.80;;;;;;;3.71;70.03;101680.56;5069523;28;20485;-66
2022/01/06 00:30:35;;;;;;;18.00;2.45;;;;;;;3.70;69.69;101674.44;5067971;28;20498;-65
2022/01/06 00:33:01;;;;;;;16.23;2.42;;;;;;;3.71;69.87;101671.00;5068989;28;20475;-64
2022/01/06 00:35:26;;;;;;;18.52;2.30;;;;;;;3.69;69.80;101672.72;5060372;28;20028;-63
2022/01/06 00:37:51;;;;;;;24.55;2.50;;;;;;;3.69;69.95;101671.81;5048101;28;20083;-64
2022/01/06 00:40:17;;;;;;;13.73;2.05;;;;;;;3.70;70.19;101679.66;5047996;28;20025;-64
2022/01/06 00:42:42;;;;;;;17.48;1.60;;;;;;;3.68;70.38;101676.19;5048347;28;20086;-63
2022/01/06 00:45:08;;;;;;;24.40;2.90;;;;;;;3.64;70.72;101679.59;5047573;28;20021;-64
2022/01/06 00:47:33;;;;;;;17.90;2.28;;;;;;;3.60;70.87;101680.44;5048797;28;20112;-66
2022/01/06 00:49:59;;;;;;;17.65;2.00;;;;;;;3.55;71.17;101683.00;5047985;28;20021;-66
2022/01/06 00:52:24;;;;;;;19.02;3.22;;;;;;;3.54;71.20;101679.56;5048684;28;20317;-64
2022/01/06 00:54:49;;;;;;;9.10;1.90;;;;;;;3.46;71.53;101680.34;5051726;28;20398;-62
2022/01/06 00:57:15;;;;;;;15.50;2.35;;;;;;;3.41;71.64;101688.09;5068485;28;20115;-63
2022/01/06 00:59:40;;;;;;;9.48;1.70;;;;;;;3.28;72.28;101698.41;5067855;28;20066;-64
2022/01/06 01:02:05;;;;;;;13.32;2.35;;;;;;;3.15;72.90;101694.78;5068450;28;20394;-65
2022/01/06 01:04:31;;;;;;;15.10;2.13;;;;;;;3.12;73.19;101705.19;5065844;28;20037;-64
2022/01/06 01:06:56;;;;;;;9.90;2.22;;;;;;;3.01;73.61;101702.44;5048356;28;20021;-63
2022/01/06 01:09:22;;;;;;;9.57;1.52;;;;;;;2.94;73.83;101698.03;5046794;28;20065;-65
2022/01/06 01:11:47;;;;;;;19.40;2.55;;;;;;;2.87;74.31;101712.72;5046440;28;20049;-64
2022/01/06 01:14:26;;;;;;;17.00;2.20;;;;;;;2.87;74.40;101712.72;5048077;28;20475;-64
2022/01/06 01:16:57;;;;;;;13.57;1.80;;;;;;;2.77;74.61;101711.69;5047952;28;20029;-65
2022/01/06 01:19:22;;;;;;;10.43;2.88;;;;;;;2.73;74.78;101717.72;5047460;28;20395;-64
2022/01/06 01:21:48;;;;;;;9.82;1.75;;;;;;;2.73;75.03;101717.72;5047459;28;20025;-65
2022/01/06 01:24:13;;;;;;;18.73;2.75;;;;;;;2.85;74.75;101721.34;5046882;28;20387;-64
2022/01/06 01:26:39;;;;;;;17.63;2.13;;;;;;;2.89;74.49;101731.81;5068062;28;20024;-65
2022/01/06 01:29:04;;;;;;;11.02;1.98;;;;;;;3.02;73.95;101732.84;5049144;28;20047;-64
2022/01/06 01:31:36;;;;;;;15.70;2.40;;;;;;;3.27;73.12;101732.25;5067897;28;20024;-65
2022/01/06 01:34:08;;;;;;;14.23;3.28;;;;;;;3.44;71.35;101724.63;5062106;28;20463;-65
2022/01/06 01:36:34;;;;;;;11.90;2.50;;;;;;;3.56;71.65;101729.09;5048252;28;20029;-65
2022/01/06 01:39:00;;;;;;;12.52;2.25;;;;;;;3.60;72.02;101728.25;5046124;28;20496;-66
2022/01/06 01:41:25;;;;;;;11.40;1.52;;;;;;;3.56;72.51;101722.97;5047817;28;20013;-69
2022/01/06 01:43:53;;;;;;;17.45;1.90;;;;;;;3.55;73.07;101729.91;5031836;28;20379;-64
2022/01/06 01:46:27;;;;;;;15.02;2.13;;;;;;;3.61;72.75;101726.53;5067500;28;20024;-65
2022/01/06 01:49:12;;;;;;;11.85;2.22;;;;;;;3.66;72.51;101730.03;5066397;28;20028;-65
2022/01/06 01:51:37;;;;;;;16.30;3.05;;;;;;;3.67;72.30;101726.56;5067309;28;20038;-66
2022/01/06 01:54:03;;;;;;;15.05;1.77;;;;;;;3.71;72.37;101737.91;5062131;28;20033;-64
2022/01/06 01:56:29;;;;;;;17.42;2.25;;;;;;;3.74;72.18;101751.84;5067444;28;20040;-62
2022/01/06 01:58:55;;;;;;;9.00;1.98;;;;;;;3.76;72.65;101751.84;5066021;28;20356;-68
2022/01/06 02:01:20;;;;;;;15.98;2.35;;;;;;;3.68;73.71;101751.78;5067234;28;20031;-67
2022/01/06 02:03:46;;;;;;;17.83;2.45;;;;;;;3.73;73.55;101744.88;5052090;22;20727;-64
2022/01/06 02:06:11;;;;;;;14.93;2.75;;;;;;;3.65;73.99;101750.00;5046633;28;20029;-64
2022/01/06 02:08:36;;;;;;;12.27;1.52;;;;;;;3.52;74.28;101754.22;5045783;28;20328;-65
2022/01/06 02:11:02;;;;;;;10.35;1.45;;;;;;;3.39;74.78;101763.66;5046841;28;20589;-65
2022/01/06 02:13:29;;;;;;;10.10;2.92;;;;;;;3.20;75.50;101762.56;5047315;28;20082;-65
2022/01/06 02:16:00;;;;;;;24.85;3.38;;;;;;;3.06;75.97;101765.00;5042629;28;20119;-65
2022/01/06 02:18:27;;;;;;;8.57;1.83;;;;;;;2.92;76.22;101766.56;5046316;28;20025;-65
2022/01/06 02:20:53;;;;;;;11.45;1.90;;;;;;;2.76;76.76;101767.22;5046529;28;20100;-64
2022/01/06 02:23:21;;;;;;;16.85;2.47;;;;;;;2.69;77.17;101759.31;5045130;28;20108;-63
2022/01/06 02:25:47;;;;;;;12.48;2.22;;;;;;;2.53;77.80;101762.56;5028809;28;20025;-65
2022/01/06 02:28:12;;;;;;;25.80;2.70;;;;;;;2.51;78.10;101768.59;5027050;28;20063;-64
2022/01/06 02:30:38;;;;;;;19.90;2.10;;;;;;;2.56;78.24;101772.13;5026192;28;20414;-64
2022/01/06 02:33:04;;;;;;;19.98;2.35;;;;;;;2.65;78.54;101789.63;5026599;28;20037;-65
2022/01/06 02:35:31;;;;;;;15.50;2.28;;;;;;;2.86;77.54;101788.19;5035506;28;20124;-65
2022/01/06 02:37:57;;;;;;;10.23;1.67;;;;;;;3.06;77.09;101795.38;5045210;28;20047;-64
2022/01/06 02:40:24;;;;;;;16.27;1.92;;;;;;;3.11;78.35;101786.78;5045319;28;20498;-64
2022/01/06 02:42:52;;;;;;;19.00;3.08;;;;;;;3.07;79.42;101792.78;5029054;28;20574;-64
2022/01/06 02:45:19;;;;;;;13.43;2.58;;;;;;;3.05;79.85;101793.63;5025697;28;20476;-64
2022/01/06 02:47:46;;;;;;;10.90;1.75;;;;;;;2.98;80.40;101790.09;5025527;28;20025;-65
2022/01/06 02:50:12;;;;;;;10.02;2.38;;;;;;;2.93;80.21;101789.13;5035393;28;20477;-65
2022/01/06 02:52:38;;;;;;;6.78;1.00;;;;;;;2.87;80.03;101793.41;5045749;28;20059;-64
2022/01/06 02:55:08;;;;;;;14.48;2.00;;;;;;;2.77;80.59;101794.16;5034643;28;20120;-64
2022/01/06 02:57:34;;;;;;;9.13;1.33;;;;;;;2.72;81.08;101796.69;5026532;28;20026;-64
2022/01/06 02:59:59;;;;;;;12.82;1.02;;;;;;;2.64;81.45;101798.28;5025763;28;20459;-64
2022/01/06 03:02:24;;;;;;;16.83;1.88;;;;;;;2.58;82.29;101798.19;5026492;28;20022;-64
2022/01/06 03:04:50;;;;;;;12.00;2.17;;;;;;;2.51;82.59;101786.81;5034465;28;20100;-65
2022/01/06 03:07:15;;;;;;;12.65;2.20;;;;;;;2.47;83.06;101798.91;5046614;28;20029;-66
2022/01/06 03:09:43;;;;;;;11.65;1.70;;;;;;;2.48;83.16;101797.19;5045292;28;20033;-65
2022/01/06 03:12:19;;;;;;;11.18;1.70;;;;;;;2.36;82.96;101792.66;5046240;28;20070;-65
2022/01/06 03:14:44;;;;;;;14.70;1.42;;;;;;;2.30;83.26;101793.44;5045389;28;20036;-64
2022/01/06 03:17:10;;;;;;;8.95;1.60;;;;;;;2.22;83.54;101789.81;5046710;28;20384;-65
2022/01/06 03:19:35;;;;;;;14.73;1.90;;;;;;;2.16;83.91;101795.81;5045342;28;20490;-65
2022/01/06 03:22:00;;;;;;;19.25;2.30;;;;;;;2.07;84.32;101798.25;5046186;28;20028;-65
2022/01/06 03:24:26;;;;;;;17.13;1.98;;;;;;;2.01;84.65;101794.72;5044854;28;20399;-65
2022/01/06 03:26:51;;;;;;;9.13;1.42;;;;;;;1.98;84.98;101792.06;5045772;28;20017;-65
2022/01/06 03:29:16;;;;;;;20.38;1.80;;;;;;;1.95;85.16;101798.91;5045326;28;20029;-68
2022/01/06 03:31:42;;;;;;;11.35;1.73;;;;;;;1.91;85.40;101803.19;5046344;28;20024;-67
2022/01/06 03:34:08;;;;;;;15.18;1.90;;;;;;;1.90;85.67;101793.66;5042140;28;20040;-65
2022/01/06 03:36:34;;;;;;;13.80;1.85;;;;;;;1.92;85.77;101794.53;5032838;28;20079;-65
2022/01/06 03:38:59;;;;;;;6.50;1.55;;;;;;;1.98;86.14;101794.66;5028230;28;20021;-64
2022/01/06 03:41:24;;;;;;;20.70;2.25;;;;;;;2.13;85.74;101800.94;5028741;28;20100;-64
2022/01/06 03:43:49;;;;;;;13.95;1.80;;;;;;;2.34;84.35;101799.56;5030058;28;20057;-65
2022/01/06 03:46:15;;;;;;;13.73;1.88;;;;;;;2.49;83.12;101812.81;5029328;28;20032;-66
2022/01/06 03:48:40;;;;;;;16.17;2.20;;;;;;;2.64;82.14;101817.38;5030454;28;20511;-66
2022/01/06 03:51:06;;;;;;;9.48;1.35;;;;;;;2.75;81.03;101816.66;5028995;28;20013;-66
2022/01/06 03:53:31;;;;;;;14.55;1.52;;;;;;;2.87;79.82;101815.97;5027961;28;20395;-65
2022/01/06 03:55:56;;;;;;;9.95;1.42;;;;;;;2.90;79.55;101821.22;5033763;28;20025;-66
2022/01/06 03:58:22;;;;;;;14.93;2.03;;;;;;;2.98;78.80;101819.56;5049909;28;20086;-65
2022/01/06 04:00:47;;;;;;;9.90;1.63;;;;;;;3.01;78.54;101822.22;5048717;28;20032;-66
2022/01/06 04:03:12;;;;;;;7.82;1.38;;;;;;;3.07;78.37;101836.19;5049998;28;20402;-68
2022/01/06 04:05:38;;;;;;;17.17;2.25;;;;;;;3.01;78.76;101829.19;5048561;28;20543;-65
2022/01/06 04:08:04;;;;;;;11.25;2.25;;;;;;;2.94;79.28;101827.31;5048852;28;20486;-64
2022/01/06 04:10:30;;;;;;;10.85;1.60;;;;;;;2.91;79.91;101830.75;5048642;28;20340;-67
2022/01/06 04:12:55;;;;;;;14.27;2.20;;;;;;;2.82;80.05;101834.13;5049104;28;20116;-66
2022/01/06 04:15:23;;;;;;;14.50;1.80;;;;;;;2.78;80.60;101825.41;5049298;28;20025;-64
2022/01/06 04:17:49;;;;;;;5.07;1.80;;;;;;;2.79;80.65;101831.47;5008413;28;20125;-65
2022/01/06 04:20:15;;;;;;;22.20;2.00;;;;;;;2.83;80.26;101830.66;5009229;28;20527;-65
2022/01/06 04:22:41;;;;;;;11.32;1.88;;;;;;;2.86;80.08;101833.28;5008901;28;20109;-66
2022/01/06 04:25:07;;;;;;;5.72;1.13;;;;;;;2.77;80.37;101830.59;5009094;28;20569;-66
2022/01/06 04:27:32;;;;;;;9.30;1.55;;;;;;;2.73;80.52;101831.38;5046007;28;20064;-66
2022/01/06 04:29:58;;;;;;;13.50;1.83;;;;;;;2.66;80.43;101830.41;5048438;28;20479;-65
2022/01/06 04:32:23;;;;;;;16.63;1.65;;;;;;;2.64;80.45;101834.72;5048628;28;20064;-65
2022/01/06 04:34:48;;;;;;;11.60;1.67;;;;;;;2.57;80.65;101841.56;5048860;28;20057;-64
2022/01/06 04:37:14;;;;;;;19.23;1.77;;;;;;;2.50;80.88;101837.97;5047685;28;20037;-66
2022/01/06 04:39:39;;;;;;;5.40;1.13;;;;;;;2.47;80.93;101840.53;5049184;28;20025;-65
2022/01/06 04:42:05;;;;;;;7.88;1.30;;;;;;;2.46;80.99;101837.91;5048171;28;20033;-65
2022/01/06 04:44:30;;;;;;;13.60;1.40;;;;;;;2.46;80.73;101843.97;5049087;28;20033;-65
2022/01/06 04:46:55;;;;;;;7.32;1.38;;;;;;;2.48;80.77;101847.50;5047080;28;20041;-66
2022/01/06 04:49:22;;;;;;;16.83;1.95;;;;;;;2.50;80.70;101848.38;5048965;28;20021;-67
2022/01/06 04:51:48;;;;;;;8.98;1.55;;;;;;;2.50;80.60;101847.53;5047254;28;20025;-65
2022/01/06 04:54:13;;;;;;;14.10;1.33;;;;;;;2.49;80.43;101848.34;5047636;28;20031;-65
2022/01/06 04:56:38;;;;;;;9.82;1.75;;;;;;;2.48;80.51;101850.09;5036135;28;20064;-66
2022/01/06 04:59:08;;;;;;;11.93;1.08;;;;;;;2.44;80.41;101847.41;5028582;28;20013;-66
2022/01/06 05:01:35;;;;;;;13.30;1.80;;;;;;;2.40;80.54;101847.38;5027757;28;20068;-67
2022/01/06 05:04:00;;;;;;;10.15;1.30;;;;;;;2.37;80.49;101852.50;5028458;28;20038;-66
2022/01/06 05:06:26;;;;;;;10.88;1.58;;;;;;;2.37;80.61;101856.84;5029856;28;20021;-66
2022/01/06 05:08:51;;;;;;;10.25;2.05;;;;;;;2.31;80.83;101856.72;5026162;28;20305;-65
2022/01/06 05:11:16;;;;;;;14.00;1.85;;;;;;;2.27;81.07;101856.69;5027729;28;20025;-67
2022/01/06 05:13:42;;;;;;;10.25;1.58;;;;;;;2.27;81.07;101856.69;5028391;28;20056;-68
2022/01/06 05:16:07;;;;;;;13.48;2.33;;;;;;;2.23;80.97;101862.66;5027822;28;20499;-66
2022/01/06 05:18:34;;;;;;;28.95;8.18;;;;;;;2.19;81.29;101863.47;5027407;28;20014;-65
2022/01/06 05:21:00;;;;;;;12.45;3.40;;;;;;;2.26;81.00;101867.94;5027864;28;20484;-68
2022/01/06 05:23:26;;;;;;;11.15;2.22;;;;;;;2.18;80.82;101869.53;5040906;28;20039;-68
2022/01/06 05:25:51;;;;;;;9.50;1.65;;;;;;;2.17;81.50;101874.72;5037573;28;20028;-66
2022/01/06 05:28:16;;;;;;;6.65;1.83;;;;;;;2.11;81.45;101875.47;5043944;28;20029;-67
2022/01/06 05:30:42;;;;;;;10.60;1.88;;;;;;;2.02;81.40;101877.03;5048522;28;20005;-66
2022/01/06 05:33:07;;;;;;;14.98;2.47;;;;;;;2.05;81.43;101873.66;5047273;28;20079;-66
2022/01/06 05:35:32;;;;;;;8.25;1.42;;;;;;;2.06;81.65;101872.78;5046574;28;20096;-67
2022/01/06 05:37:58;;;;;;;8.93;2.13;;;;;;;2.04;81.62;101873.63;5046723;28;20456;-68
2022/01/06 05:40:23;;;;;;;16.25;2.33;;;;;;;1.99;81.52;101876.97;5046615;28;20032;-65
2022/01/06 05:42:49;;;;;;;9.15;1.50;;;;;;;1.89;81.56;101872.47;5046021;28;20111;-67
2022/01/06 05:45:16;;;;;;;6.25;1.08;;;;;;;1.80;81.52;101877.50;5026988;28;20092;-64
2022/01/06 05:47:41;;;;;;;5.85;1.27;;;;;;;1.70;82.06;101879.91;5027606;28;20252;-65
2022/01/06 05:50:08;;;;;;;8.65;1.45;;;;;;;1.62;82.13;101878.88;5027649;28;20104;-67
2022/01/06 05:52:34;;;;;;;7.95;1.98;;;;;;;1.56;82.42;101881.38;5026937;28;20022;-67
2022/01/06 05:55:00;;;;;;;7.25;1.40;;;;;;;1.50;82.67;101885.56;5032272;28;20038;-66
2022/01/06 05:57:25;;;;;;;5.22;1.25;;;;;;;1.43;83.26;101881.09;5042876;28;20033;-65
2022/01/06 05:59:50;;;;;;;15.65;1.48;;;;;;;1.41;83.38;101885.38;5046128;28;20025;-66
2022/01/06 06:02:16;;;;;;;14.55;3.38;;;;;;;1.39;83.53;101889.69;5046198;28;20075;-67
2022/01/06 06:04:41;;;;;;;9.75;1.63;;;;;;;1.35;83.65;101890.44;5044991;28;20053;-67
2022/01/06 06:07:06;;;;;;;17.25;2.00;;;;;;;1.34;83.83;101896.47;5044817;28;20021;-65
2022/01/06 06:09:32;;;;;;;7.63;1.60;;;;;;;1.30;83.89;101899.88;5036175;28;20088;-65
2022/01/06 06:11:57;;;;;;;18.17;2.28;;;;;;;1.33;84.08;101905.13;5027428;28;20049;-66
2022/01/06 06:14:22;;;;;;;8.30;1.60;;;;;;;1.32;84.24;101896.44;5026856;28;20029;-66
2022/01/06 06:16:48;;;;;;;11.75;2.13;;;;;;;1.35;84.65;101903.41;5027249;28;20036;-65
2022/01/06 06:19:13;;;;;;;15.75;2.85;;;;;;;1.42;84.51;101910.53;5027107;28;20029;-66
2022/01/06 06:21:38;;;;;;;14.77;2.08;;;;;;;1.45;84.30;101910.59;5027538;28;20029;-66
2022/01/06 06:24:05;;;;;;;12.23;1.67;;;;;;;1.43;83.98;101907.06;5025579;28;20052;-66
2022/01/06 06:26:30;;;;;;;14.93;2.47;;;;;;;1.39;84.00;101905.28;5026645;28;20124;-67
2022/01/06 06:28:56;;;;;;;5.95;1.83;;;;;;;1.38;83.90;101921.66;5026819;28;20124;-65
2022/01/06 06:31:21;;;;;;;12.43;1.40;;;;;;;1.38;83.97;101929.47;5026584;28;20454;-65
2022/01/06 06:33:46;;;;;;;7.25;1.65;;;;;;;1.37;84.06;101919.94;5024057;28;20534;-62
2022/01/06 06:36:12;;;;;;;14.85;2.10;;;;;;;1.31;84.01;101923.28;5027019;28;20056;-62
2022/01/06 06:38:37;;;;;;;13.10;2.40;;;;;;;1.23;84.00;101925.69;5024667;28;20265;-62
2022/01/06 06:41:02;;;;;;;12.07;1.83;;;;;;;1.21;84.27;101940.34;5025977;28;20329;-62
2022/01/06 06:43:27;;;;;;;8.10;1.65;;;;;;;1.20;84.48;101935.16;5025318;28;20053;-62
2022/01/06 06:45:53;;;;;;;4.38;1.75;;;;;;;1.19;84.69;101936.84;5024843;28;20465;-65
2022/01/06 06:48:18;;;;;;;16.98;2.38;;;;;;;1.16;84.85;101938.50;5025031;28;20482;-62
2022/01/06 06:50:43;;;;;;;12.88;1.88;;;;;;;1.18;84.97;101942.91;5011206;28;20084;-66
2022/01/06 06:53:09;;;;;;;11.50;1.90;;;;;;;1.14;84.96;101946.25;5017775;28;20404;-67
2022/01/06 06:55:34;;;;;;;8.85;1.63;;;;;;;1.19;84.87;101947.25;5024499;28;20484;-66
2022/01/06 06:58:01;;;;;;;7.07;1.25;;;;;;;1.20;84.60;101949.00;5025588;28;20025;-68
2022/01/06 07:00:26;;;;;;;9.77;1.60;;;;;;;1.23;84.56;101948.16;5008163;28;20111;-69
2022/01/06 07:02:52;;;;;;;18.27;1.83;;;;;;;1.20;84.38;101950.72;5006266;28;20065;-70
2022/01/06 07:05:17;;;;;;;12.15;1.85;;;;;;;1.23;84.22;101941.28;5025952;28;20155;-74
2022/01/06 07:07:43;;;;;;;11.80;1.80;;;;;;;1.24;84.04;101950.81;5025041;28;20033;-72
2022/01/06 07:10:09;;;;;;;4.55;1.55;;;;;;;1.29;84.01;101944.88;5023070;28;20031;-72
2022/01/06 07:12:41;;;;;;;6.15;1.90;;;;;;;1.29;83.85;101948.31;5025440;28;20036;-73
2022/01/06 07:15:12;;;;;;;8.43;1.88;;;;;;;1.24;83.72;101947.34;5025187;28;20551;-72
2022/01/06 07:17:38;;;;;;;4.80;1.35;;;;;;;1.15;83.49;101942.84;5028364;28;20376;-73
2022/01/06 07:20:05;;;;;;;10.48;1.65;;;;;;;1.04;83.58;101952.06;5045613;28;20374;-72
2022/01/06 07:22:30;;;;;;;4.60;1.27;;;;;;;0.98;83.80;101947.59;5043336;28;20472;-73
2022/01/06 07:24:56;;;;;;;10.07;1.75;;;;;;;0.92;83.99;101944.84;5041003;28;20047;-65
2022/01/06 07:27:21;;;;;;;12.43;1.58;;;;;;;0.84;84.27;101955.06;5026951;28;20032;-71
2022/01/06 07:29:46;;;;;;;10.25;1.50;;;;;;;0.80;84.55;101959.31;5024969;28;20101;-70
2022/01/06 07:32:11;;;;;;;5.30;1.33;;;;;;;0.78;85.06;101962.72;5024368;28;20112;-71
2022/01/06 07:34:37;;;;;;;10.07;1.50;;;;;;;0.72;85.25;101964.28;5025354;28;20077;-67
2022/01/06 07:37:03;;;;;;;13.82;1.80;;;;;;;0.79;85.64;101957.56;5025150;28;20057;-68
2022/01/06 07:39:29;;;;;;;10.48;1.67;;;;;;;0.85;85.72;101967.19;5023742;28;20096;-66
2022/01/06 07:41:54;;;;;;;7.18;1.27;;;;;;;0.88;85.78;101968.13;5031896;28;20100;-65
2022/01/06 07:44:19;;;;;;;13.05;2.00;;;;;;;0.93;85.39;101977.78;5046108;28;20028;-67
2022/01/06 07:46:46;;;;;;;11.23;1.42;;;;;;;0.91;85.08;101979.44;5044689;28;20052;-67
2022/01/06 07:49:12;;;;;;;12.13;1.85;;;;;;;0.86;84.91;101972.44;5044409;28;20029;-67
2022/01/06 07:51:37;;;;;;;10.77;1.50;;;;;;;0.83;85.28;101981.84;5031265;28;20033;-66
2022/01/06 07:54:03;;;;;;;9.02;1.20;;;;;;;0.79;85.56;101980.03;5024591;28;20055;-65
2022/01/06 07:56:29;;;;;;;8.23;1.58;;;;;;;0.77;85.78;101986.88;5024995;28;20506;-63
2022/01/06 07:58:54;;;;;;;12.35;1.67;;;;;;;0.71;85.91;101983.31;5024319;28;20029;-64
2022/01/06 08:01:20;;;;;;;11.20;1.98;;;;;;;0.76;85.94;101996.41;5025221;28;20519;-65
2022/01/06 08:03:45;;;;;;;11.35;2.38;;;;;;;0.86;86.17;101997.50;5024553;28;20042;-67
2022/01/06 08:06:12;;;;;;;14.13;2.53;;;;;;;0.96;86.60;101996.88;5028601;28;20021;-68
2022/01/06 08:08:37;;;;;;;14.10;2.42;;;;;;;1.02;86.42;102001.34;5045140;28;20086;-73
2022/01/06 08:11:03;;;;;;;15.48;2.10;;;;;;;1.10;86.04;102005.03;5043648;28;20100;-71
2022/01/06 08:13:28;;;;;;;17.50;2.25;;;;;;;1.12;85.77;102008.50;5045515;28;20055;-72
2022/01/06 08:15:54;;;;;;;8.73;2.20;;;;;;;1.12;85.62;101995.53;5044756;28;20029;-66
2022/01/06 08:18:19;;;;;;;11.38;1.92;;;;;;;1.18;85.45;101993.94;5045114;28;20299;-73
2022/01/06 08:20:44;;;;;;;18.08;2.25;;;;;;;1.32;85.50;102004.66;5002267;28;20024;-70
2022/01/06 08:23:10;;;;;;;7.07;1.85;;;;;;;1.43;85.38;101992.78;5004050;28;20034;-70
2022/01/06 08:25:36;;;;;;;16.48;2.70;;;;;;;1.55;84.87;102000.00;5006228;28;20006;-71
2022/01/06 08:28:02;;;;;;;15.98;2.25;;;;;;;1.64;84.24;101999.31;5005414;28;20531;-71
2022/01/06 08:30:28;;;;;;;16.20;2.40;;;;;;;1.75;83.62;102008.22;5003915;28;20016;-72
2022/01/06 08:32:55;;;;;;;17.33;2.55;;;;;;;1.86;83.34;102007.56;5004837;28;20029;-70
2022/01/06 08:35:20;;;;;;;10.55;2.40;;;;;;;1.93;82.85;102017.28;5004885;28;20037;-71
2022/01/06 08:37:46;;;;;;;8.75;2.13;;;;;;;2.01;82.46;102009.59;5004219;28;20022;-71
2022/01/06 08:40:12;;;;;;;17.65;2.40;;;;;;;2.04;82.64;102014.03;5026245;28;20021;-72
2022/01/06 08:42:37;;;;;;;20.23;2.65;;;;;;;2.15;82.28;102012.50;5022843;28;20033;-72
2022/01/06 08:45:04;;;;;;;9.18;2.00;;;;;;;2.27;81.99;102012.75;5025582;28;20059;-70
2022/01/06 08:47:29;;;;;;;14.05;2.45;;;;;;;2.42;81.57;102019.09;5025460;28;20029;-70
2022/01/06 08:49:55;;;;;;;10.20;2.03;;;;;;;2.64;80.73;102011.69;5025694;28;20032;-70
2022/01/06 08:52:22;;;;;;;15.63;2.28;;;;;;;2.84;79.91;102016.38;5004506;28;20168;-70
2022/01/06 08:54:47;;;;;;;8.88;1.83;;;;;;;2.97;79.34;102020.94;5004835;28;20415;-70
2022/01/06 08:57:13;;;;;;;8.40;1.98;;;;;;;3.10;78.87;102018.56;5005586;28;20031;-72
2022/01/06 08:59:38;;;;;;;12.48;2.15;;;;;;;3.21;78.05;102011.78;5004809;28;20030;-72
2022/01/06 09:02:03;;;;;;;11.98;2.35;;;;;;;3.34;77.71;102010.22;5005050;28;20797;-71
2022/01/06 09:04:29;;;;;;;13.90;1.98;;;;;;;3.39;77.72;102002.47;5005496;28;20147;-70
2022/01/06 09:06:54;;;;;;;16.00;3.33;;;;;;;3.37;77.97;102005.06;5003093;28;20061;-72
2022/01/06 09:09:20;;;;;;;12.60;2.72;;;;;;;3.45;77.69;102010.41;5014133;28;20013;-72
2022/01/06 09:11:46;;;;;;;14.55;2.40;;;;;;;3.49;77.56;102011.31;5024170;28;20030;-69
2022/01/06 09:14:12;;;;;;;11.75;2.40;;;;;;;3.51;77.61;102013.09;5018871;28;20025;-71
2022/01/06 09:16:38;;;;;;;13.60;3.45;;;;;;;3.54;77.67;102015.75;5004287;28;20037;-72
2022/01/06 09:19:04;;;;;;;17.38;3.00;;;;;;;3.56;77.52;102007.94;5004970;28;20526;-72
2022/01/06 09:21:29;;;;;;;16.85;2.53;;;;;;;3.55;77.33;102006.19;5003735;28;20033;-70
2022/01/06 09:23:57;;;;;;;8.18;2.42;;;;;;;3.56;77.54;102014.88;5004222;28;20052;-71
2022/01/06 09:26:22;;;;;;;15.88;3.67;;;;;;;3.56;77.79;102013.16;5005295;28;20061;-70
2022/01/06 09:28:47;;;;;;;13.88;2.75;;;;;;;3.57;77.96;102011.41;5005373;28;20060;-71
2022/01/06 09:31:13;;;;;;;10.98;2.72;;;;;;;3.56;78.36;102018.38;5018149;28;20713;-70
2022/01/06 09:33:39;;;;;;;10.23;2.42;;;;;;;3.63;78.15;102016.72;5023814;28;20021;-72
2022/01/06 09:36:04;;;;;;;9.70;2.70;;;;;;;3.64;78.02;102018.47;5007470;28;20216;-70
2022/01/06 09:38:29;;;;;;;9.65;2.45;;;;;;;3.70;78.17;102025.53;5002976;28;20025;-70
2022/01/06 09:40:55;;;;;;;15.10;3.88;;;;;;;3.73;77.64;102021.22;5008896;28;20487;-70
2022/01/06 09:43:26;;;;;;;11.63;2.35;;;;;;;3.79;77.84;102023.00;5023634;28;20383;-70
2022/01/06 09:45:52;;;;;;;19.20;3.42;;;;;;;3.83;77.96;102023.94;4992252;28;20021;-71
2022/01/06 09:48:20;;;;;;;11.02;2.83;;;;;;;3.90;77.85;102031.00;5000282;28;20021;-71
2022/01/06 09:50:46;;;;;;;13.40;2.97;;;;;;;3.96;77.32;102020.66;4986274;28;20722;-71
2022/01/06 09:53:12;;;;;;;8.27;2.42;;;;;;;4.04;77.12;102034.66;5012038;28;20499;-70
2022/01/06 09:55:39;;;;;;;12.93;2.53;;;;;;;4.11;76.39;102032.13;5024752;28;20389;-70
2022/01/06 09:58:05;;;;;;;17.48;3.40;;;;;;;4.21;75.91;102030.53;5023105;28;20052;-70
2022/01/06 10:00:33;;;;;;;16.15;2.83;;;;;;;4.24;76.00;102034.03;5004000;28;20799;-71
2022/01/06 10:03:01;;;;;;;10.38;2.55;;;;;;;4.29;76.09;102040.19;5003505;28;20509;-71
2022/01/06 10:05:40;;;;;;;10.05;2.80;;;;;;;4.35;76.07;102033.28;5014848;28;20480;-71
2022/01/06 10:08:05;;;;;;;20.30;2.92;;;;;;;4.38;75.98;102038.53;5023277;28;20683;-70
2022/01/06 10:10:31;;;;;;;9.95;3.03;;;;;;;4.45;75.89;102034.28;5023231;28;20017;-71
2022/01/06 10:13:00;;;;;;;14.90;2.75;;;;;;;4.54;75.06;102035.22;5022879;28;20427;-69
2022/01/06 10:15:27;;;;;;;19.52;4.85;;;;;;;4.60;75.01;102034.41;5023036;28;20087;-69
2022/01/06 10:17:53;;;;;;;15.80;2.60;;;;;;;4.71;74.49;102036.25;5012284;28;20487;-70
2022/01/06 10:20:26;;;;;;;9.05;2.65;;;;;;;4.77;74.10;102029.38;5004883;28;20017;-72
2022/01/06 10:22:54;;;;;;;10.85;2.28;;;;;;;4.89;73.64;102030.34;5015770;28;20549;-70
2022/01/06 10:25:21;;;;;;;6.68;2.97;;;;;;;5.06;72.97;102033.97;5023939;28;20041;-69
2022/01/06 10:27:49;;;;;;;15.52;2.60;;;;;;;5.27;73.20;102034.16;5022220;28;20516;-71
2022/01/06 10:30:15;;;;;;;14.02;2.30;;;;;;;5.46;72.45;102031.66;5024558;28;20558;-69
2022/01/06 10:32:41;;;;;;;17.65;2.50;;;;;;;5.72;71.63;102023.97;5019108;28;20057;-70
2022/01/06 10:35:08;;;;;;;14.52;2.75;;;;;;;5.74;71.12;102030.09;5004206;28;20524;-70
2022/01/06 10:37:39;;;;;;;16.60;2.47;;;;;;;5.91;71.17;102016.22;5001867;28;20040;-69
2022/01/06 10:40:16;;;;;;;11.68;2.55;;;;;;;6.05;70.53;102011.94;5003169;28;20152;-71
2022/01/06 10:42:46;;;;;;;13.30;2.63;;;;;;;6.11;70.46;102015.47;4985660;28;20024;-70
2022/01/06 10:45:17;;;;;;;11.23;2.13;;;;;;;6.05;70.06;102017.19;5003556;28;20484;-68
2022/01/06 10:47:46;;;;;;;15.82;2.30;;;;;;;6.19;69.68;102019.84;5043221;28;20434;-70
2022/01/06 10:50:19;;;;;;;14.25;2.17;;;;;;;6.32;69.32;102017.25;5046741;28;20494;-69
2022/01/06 10:52:51;;;;;;;12.07;2.30;;;;;;;6.44;68.60;102016.41;5043237;28;20395;-69
2022/01/06 10:55:28;;;;;;;15.60;2.38;;;;;;;6.53;68.46;102011.22;5044548;28;20017;-71
2022/01/06 10:58:01;;;;;;;10.57;2.33;;;;;;;6.44;69.07;102003.31;5044040;28;20091;-70
2022/01/06 11:00:29;;;;;;;15.55;1.77;;;;;;;6.43;68.28;102012.94;5045913;28;20029;-70
2022/01/06 11:03:28;;;;;;;11.32;2.00;;;;;;;6.46;67.60;102014.69;5036714;28;20048;-71
2022/01/06 11:05:58;;;;;;;12.20;1.90;;;;;;;6.49;67.63;102006.84;4996459;28;20396;-73
2022/01/06 11:08:27;;;;;;;11.68;2.35;;;;;;;6.64;67.88;102003.38;5020045;28;20017;-69
2022/01/06 11:11:28;;;;;;;12.43;1.63;;;;;;;6.93;67.13;102001.66;5024832;28;20036;-71
2022/01/06 11:13:47;;;;;;;8.43;2.13;;;;;;;7.29;66.33;102017.38;5017165;28;20115;-70
2022/01/06 11:16:14;;;;;;;6.78;1.95;;;;;;;7.47;65.21;102000.72;5021731;28;20101;-70
2022/01/06 11:18:42;;;;;;;9.02;1.90;;;;;;;7.54;65.75;102010.34;5015001;28;20503;-69
2022/01/06 11:21:15;;;;;;;20.15;2.72;;;;;;;7.45;65.54;102005.09;5003756;28;20022;-70
2022/01/06 11:23:41;;;;;;;11.32;1.73;;;;;;;7.14;63.65;102006.03;5014584;28;20029;-69
2022/01/06 11:26:08;;;;;;;8.63;1.23;;;;;;;6.89;63.79;102018.25;5029740;28;20033;-70